sensor_id;sensor_type;location;lat;lon;timestamp;P1;durP1;ratioP1;P2;durP2;ratioP2
9370;SDS011;4725;48.384;8.984;2023-05-14T00:01:52;4.50;;;4.10;;
9370;SDS011;4725;48.384;8.984;2023-05-14T00:04:19;5.23;;;4.70;;
9370;SDS011;4725;48.384;8.984;2023-05-14T00:06:46;4.67;;;4.27;;
9370;SDS011;4725;48.384;8.984;2023-05-14T00:09:14;5.07;;;4.50;;
9370;SDS011;4725;48.384;8.984;2023-05-14T00:11:41;5.90;;;4.10;;
9370;SDS011;4725;48.384;8.984;2023-05-14T00:14:08;4.20;;;3.80;;
9370;SDS011;4725;48.384;8.984;2023-05-14T00:16:34;4.53;;;4.13;;
9370;SDS011;4725;48.384;8.984;2023-05-14T00:19:01;6.50;;;4.40;;
9370;SDS011;4725;48.384;8.984;2023-05-14T00:21:28;5.67;;;4.20;;
9370;SDS011;4725;48.384;8.984;2023-05-14T00:23:55;4.60;;;4.20;;
9370;SDS011;4725;48.384;8.984;2023-05-14T00:26:24;5.83;;;5.23;;
9370;SDS011;4725;48.384;8.984;2023-05-14T00:28:50;4.90;;;4.40;;
9370;SDS011;4725;48.384;8.984;2023-05-14T00:31:17;4.90;;;4.30;;
9370;SDS011;4725;48.384;8.984;2023-05-14T00:33:44;4.63;;;4.23;;
9370;SDS011;4725;48.384;8.984;2023-05-14T00:36:11;5.20;;;4.70;;
9370;SDS011;4725;48.384;8.984;2023-05-14T00:38:38;4.67;;;4.27;;
9370;SDS011;4725;48.384;8.984;2023-05-14T00:41:05;5.13;;;4.27;;
9370;SDS011;4725;48.384;8.984;2023-05-14T00:43:33;5.20;;;4.40;;
9370;SDS011;4725;48.384;8.984;2023-05-14T00:46:00;11.97;;;4.67;;
9370;SDS011;4725;48.384;8.984;2023-05-14T00:48:27;4.57;;;4.17;;
9370;SDS011;4725;48.384;8.984;2023-05-14T00:50:54;9.10;;;4.30;;
9370;SDS011;4725;48.384;8.984;2023-05-14T00:53:21;5.67;;;4.90;;
9370;SDS011;4725;48.384;8.984;2023-05-14T00:55:48;5.97;;;4.70;;
9370;SDS011;4725;48.384;8.984;2023-05-14T00:58:15;5.90;;;5.40;;
9370;SDS011;4725;48.384;8.984;2023-05-14T01:00:45;6.30;;;5.47;;
9370;SDS011;4725;48.384;8.984;2023-05-14T01:03:12;5.93;;;4.83;;
9370;SDS011;4725;48.384;8.984;2023-05-14T01:05:40;6.40;;;5.53;;
9370;SDS011;4725;48.384;8.984;2023-05-14T01:08:12;7.67;;;6.00;;
9370;SDS011;4725;48.384;8.984;2023-05-14T01:10:48;10.03;;;5.90;;
9370;SDS011;4725;48.384;8.984;2023-05-14T01:13:18;7.73;;;6.20;;
9370;SDS011;4725;48.384;8.984;2023-05-14T01:15:53;10.20;;;7.10;;
9370;SDS011;4725;48.384;8.984;2023-05-14T01:18:22;6.50;;;5.57;;
9370;SDS011;4725;48.384;8.984;2023-05-14T01:20:52;10.90;;;5.30;;
9370;SDS011;4725;48.384;8.984;2023-05-14T01:23:20;8.30;;;5.73;;
9370;SDS011;4725;48.384;8.984;2023-05-14T01:25:47;6.10;;;5.50;;
9370;SDS011;4725;48.384;8.984;2023-05-14T01:28:15;6.93;;;5.83;;
9370;SDS011;4725;48.384;8.984;2023-05-14T01:30:47;10.73;;;6.00;;
9370;SDS011;4725;48.384;8.984;2023-05-14T01:33:19;7.17;;;5.80;;
9370;SDS011;4725;48.384;8.984;2023-05-14T01:35:47;5.37;;;4.87;;
9370;SDS011;4725;48.384;8.984;2023-05-14T01:38:17;9.90;;;5.37;;
9370;SDS011;4725;48.384;8.984;2023-05-14T01:40:47;5.00;;;4.50;;
9370;SDS011;4725;48.384;8.984;2023-05-14T01:43:15;8.53;;;5.53;;
9370;SDS011;4725;48.384;8.984;2023-05-14T01:45:43;7.60;;;5.50;;
9370;SDS011;4725;48.384;8.984;2023-05-14T01:48:10;6.23;;;5.53;;
9370;SDS011;4725;48.384;8.984;2023-05-14T01:50:36;6.73;;;5.43;;
9370;SDS011;4725;48.384;8.984;2023-05-14T01:53:03;7.30;;;6.30;;
9370;SDS011;4725;48.384;8.984;2023-05-14T01:55:31;6.67;;;5.97;;
9370;SDS011;4725;48.384;8.984;2023-05-14T01:57:58;6.80;;;5.97;;
9370;SDS011;4725;48.384;8.984;2023-05-14T02:00:25;8.60;;;5.27;;
9370;SDS011;4725;48.384;8.984;2023-05-14T02:02:52;6.97;;;5.83;;
9370;SDS011;4725;48.384;8.984;2023-05-14T02:05:19;11.07;;;6.00;;
9370;SDS011;4725;48.384;8.984;2023-05-14T02:07:46;7.83;;;5.80;;
9370;SDS011;4725;48.384;8.984;2023-05-14T02:10:13;8.57;;;6.57;;
9370;SDS011;4725;48.384;8.984;2023-05-14T02:12:41;9.23;;;7.23;;
9370;SDS011;4725;48.384;8.984;2023-05-14T02:15:08;10.20;;;7.30;;
9370;SDS011;4725;48.384;8.984;2023-05-14T02:17:35;8.67;;;7.50;;
9370;SDS011;4725;48.384;8.984;2023-05-14T02:20:02;7.80;;;7.00;;
9370;SDS011;4725;48.384;8.984;2023-05-14T02:22:30;13.40;;;7.83;;
9370;SDS011;4725;48.384;8.984;2023-05-14T02:24:57;7.93;;;7.13;;
9370;SDS011;4725;48.384;8.984;2023-05-14T02:27:24;9.90;;;7.37;;
9370;SDS011;4725;48.384;8.984;2023-05-14T02:29:52;9.00;;;8.00;;
9370;SDS011;4725;48.384;8.984;2023-05-14T02:32:20;8.83;;;7.83;;
9370;SDS011;4725;48.384;8.984;2023-05-14T02:34:47;8.37;;;7.47;;
9370;SDS011;4725;48.384;8.984;2023-05-14T02:37:14;7.93;;;6.67;;
9370;SDS011;4725;48.384;8.984;2023-05-14T02:39:41;9.53;;;6.30;;
9370;SDS011;4725;48.384;8.984;2023-05-14T02:42:07;9.23;;;5.83;;
9370;SDS011;4725;48.384;8.984;2023-05-14T02:44:34;8.73;;;6.40;;
9370;SDS011;4725;48.384;8.984;2023-05-14T02:47:03;6.73;;;5.93;;
9370;SDS011;4725;48.384;8.984;2023-05-14T02:49:30;7.23;;;6.50;;
9370;SDS011;4725;48.384;8.984;2023-05-14T02:51:57;8.30;;;6.00;;
9370;SDS011;4725;48.384;8.984;2023-05-14T02:54:24;5.77;;;5.17;;
9370;SDS011;4725;48.384;8.984;2023-05-14T02:56:51;5.97;;;5.23;;
9370;SDS011;4725;48.384;8.984;2023-05-14T02:59:18;9.07;;;6.70;;
9370;SDS011;4725;48.384;8.984;2023-05-14T03:01:45;6.67;;;5.87;;
9370;SDS011;4725;48.384;8.984;2023-05-14T03:04:13;6.97;;;6.27;;
9370;SDS011;4725;48.384;8.984;2023-05-14T03:06:40;6.10;;;5.50;;
9370;SDS011;4725;48.384;8.984;2023-05-14T03:09:07;6.30;;;5.70;;
9370;SDS011;4725;48.384;8.984;2023-05-14T03:11:34;6.00;;;5.50;;
9370;SDS011;4725;48.384;8.984;2023-05-14T03:14:01;6.93;;;5.40;;
9370;SDS011;4725;48.384;8.984;2023-05-14T03:16:28;5.33;;;4.83;;
9370;SDS011;4725;48.384;8.984;2023-05-14T03:18:54;6.23;;;5.63;;
9370;SDS011;4725;48.384;8.984;2023-05-14T03:21:23;5.63;;;5.13;;
9370;SDS011;4725;48.384;8.984;2023-05-14T03:23:50;5.50;;;5.00;;
9370;SDS011;4725;48.384;8.984;2023-05-14T03:26:17;5.60;;;5.00;;
9370;SDS011;4725;48.384;8.984;2023-05-14T03:28:45;5.57;;;5.07;;
9370;SDS011;4725;48.384;8.984;2023-05-14T03:31:12;5.50;;;5.00;;
9370;SDS011;4725;48.384;8.984;2023-05-14T03:33:39;5.40;;;4.80;;
9370;SDS011;4725;48.384;8.984;2023-05-14T03:36:06;5.20;;;4.70;;
9370;SDS011;4725;48.384;8.984;2023-05-14T03:38:34;5.43;;;4.93;;
9370;SDS011;4725;48.384;8.984;2023-05-14T03:41:01;7.33;;;5.47;;
9370;SDS011;4725;48.384;8.984;2023-05-14T03:43:28;5.60;;;5.10;;
9370;SDS011;4725;48.384;8.984;2023-05-14T03:45:55;8.30;;;5.00;;
9370;SDS011;4725;48.384;8.984;2023-05-14T03:48:22;5.13;;;4.67;;
9370;SDS011;4725;48.384;8.984;2023-05-14T03:50:49;5.67;;;5.10;;
9370;SDS011;4725;48.384;8.984;2023-05-14T03:53:16;5.90;;;5.40;;
9370;SDS011;4725;48.384;8.984;2023-05-14T03:55:44;7.03;;;6.37;;
9370;SDS011;4725;48.384;8.984;2023-05-14T03:58:11;6.40;;;5.80;;
9370;SDS011;4725;48.384;8.984;2023-05-14T04:00:39;6.63;;;5.23;;
9370;SDS011;4725;48.384;8.984;2023-05-14T04:03:07;8.17;;;6.73;;
9370;SDS011;4725;48.384;8.984;2023-05-14T04:05:34;7.03;;;6.27;;
9370;SDS011;4725;48.384;8.984;2023-05-14T04:08:00;7.93;;;6.17;;
9370;SDS011;4725;48.384;8.984;2023-05-14T04:10:27;6.47;;;5.70;;
9370;SDS011;4725;48.384;8.984;2023-05-14T04:12:56;6.73;;;6.03;;
9370;SDS011;4725;48.384;8.984;2023-05-14T04:15:23;7.70;;;6.77;;
9370;SDS011;4725;48.384;8.984;2023-05-14T04:17:50;6.53;;;5.90;;
9370;SDS011;4725;48.384;8.984;2023-05-14T04:20:17;6.80;;;6.10;;
9370;SDS011;4725;48.384;8.984;2023-05-14T04:22:44;9.03;;;7.37;;
9370;SDS011;4725;48.384;8.984;2023-05-14T04:25:11;8.77;;;6.80;;
9370;SDS011;4725;48.384;8.984;2023-05-14T04:27:38;12.03;;;6.83;;
9370;SDS011;4725;48.384;8.984;2023-05-14T04:30:07;6.80;;;6.17;;
9370;SDS011;4725;48.384;8.984;2023-05-14T04:32:35;7.17;;;6.13;;
9370;SDS011;4725;48.384;8.984;2023-05-14T04:35:03;7.37;;;6.57;;
9370;SDS011;4725;48.384;8.984;2023-05-14T04:37:30;7.20;;;6.50;;
9370;SDS011;4725;48.384;8.984;2023-05-14T04:39:57;7.67;;;6.17;;
9370;SDS011;4725;48.384;8.984;2023-05-14T04:42:25;8.80;;;7.90;;
9370;SDS011;4725;48.384;8.984;2023-05-14T04:44:52;7.20;;;6.50;;
9370;SDS011;4725;48.384;8.984;2023-05-14T04:47:20;8.37;;;7.50;;
9370;SDS011;4725;48.384;8.984;2023-05-14T04:49:47;7.03;;;6.33;;
9370;SDS011;4725;48.384;8.984;2023-05-14T04:52:14;7.70;;;6.87;;
9370;SDS011;4725;48.384;8.984;2023-05-14T04:54:41;7.40;;;6.67;;
9370;SDS011;4725;48.384;8.984;2023-05-14T04:57:08;6.23;;;5.63;;
9370;SDS011;4725;48.384;8.984;2023-05-14T04:59:35;6.70;;;6.10;;
9370;SDS011;4725;48.384;8.984;2023-05-14T05:02:02;8.60;;;6.57;;
9370;SDS011;4725;48.384;8.984;2023-05-14T05:04:30;7.57;;;6.80;;
9370;SDS011;4725;48.384;8.984;2023-05-14T05:06:57;8.63;;;7.83;;
9370;SDS011;4725;48.384;8.984;2023-05-14T05:09:24;8.63;;;6.73;;
9370;SDS011;4725;48.384;8.984;2023-05-14T05:11:51;9.33;;;8.33;;
9370;SDS011;4725;48.384;8.984;2023-05-14T05:14:18;7.50;;;6.70;;
9370;SDS011;4725;48.384;8.984;2023-05-14T05:16:44;8.10;;;7.40;;
9370;SDS011;4725;48.384;8.984;2023-05-14T05:19:11;9.00;;;7.87;;
9370;SDS011;4725;48.384;8.984;2023-05-14T05:21:39;8.10;;;7.30;;
9370;SDS011;4725;48.384;8.984;2023-05-14T05:24:06;7.67;;;6.80;;
9370;SDS011;4725;48.384;8.984;2023-05-14T05:26:33;9.00;;;7.87;;
9370;SDS011;4725;48.384;8.984;2023-05-14T05:29:01;9.63;;;8.63;;
9370;SDS011;4725;48.384;8.984;2023-05-14T05:31:28;10.53;;;8.47;;
9370;SDS011;4725;48.384;8.984;2023-05-14T05:33:55;10.47;;;7.87;;
9370;SDS011;4725;48.384;8.984;2023-05-14T05:36:22;8.37;;;7.57;;
9370;SDS011;4725;48.384;8.984;2023-05-14T05:38:50;9.47;;;8.57;;
9370;SDS011;4725;48.384;8.984;2023-05-14T05:41:17;9.50;;;8.03;;
9370;SDS011;4725;48.384;8.984;2023-05-14T05:43:44;10.23;;;8.30;;
9370;SDS011;4725;48.384;8.984;2023-05-14T05:46:11;8.43;;;7.63;;
9370;SDS011;4725;48.384;8.984;2023-05-14T05:48:38;9.53;;;8.63;;
9370;SDS011;4725;48.384;8.984;2023-05-14T05:51:05;8.83;;;7.93;;
9370;SDS011;4725;48.384;8.984;2023-05-14T05:53:31;8.47;;;7.67;;
9370;SDS011;4725;48.384;8.984;2023-05-14T05:56:00;8.47;;;7.63;;
9370;SDS011;4725;48.384;8.984;2023-05-14T05:58:27;9.13;;;8.27;;
9370;SDS011;4725;48.384;8.984;2023-05-14T06:00:54;9.70;;;8.50;;
9370;SDS011;4725;48.384;8.984;2023-05-14T06:03:21;8.63;;;7.83;;
9370;SDS011;4725;48.384;8.984;2023-05-14T06:05:49;11.77;;;8.63;;
9370;SDS011;4725;48.384;8.984;2023-05-14T06:08:16;10.70;;;8.87;;
9370;SDS011;4725;48.384;8.984;2023-05-14T06:10:43;10.20;;;9.20;;
9370;SDS011;4725;48.384;8.984;2023-05-14T06:13:12;10.40;;;9.07;;
9370;SDS011;4725;48.384;8.984;2023-05-14T06:15:39;9.93;;;9.03;;
9370;SDS011;4725;48.384;8.984;2023-05-14T06:18:06;10.77;;;9.67;;
9370;SDS011;4725;48.384;8.984;2023-05-14T06:20:32;11.47;;;9.77;;
9370;SDS011;4725;48.384;8.984;2023-05-14T06:22:59;9.80;;;8.93;;
9370;SDS011;4725;48.384;8.984;2023-05-14T06:25:26;9.93;;;8.90;;
9370;SDS011;4725;48.384;8.984;2023-05-14T06:27:53;9.60;;;8.60;;
9370;SDS011;4725;48.384;8.984;2023-05-14T06:30:21;10.30;;;9.30;;
9370;SDS011;4725;48.384;8.984;2023-05-14T06:32:48;10.27;;;8.80;;
9370;SDS011;4725;48.384;8.984;2023-05-14T06:35:15;9.43;;;8.60;;
9370;SDS011;4725;48.384;8.984;2023-05-14T06:37:42;8.13;;;7.43;;
9370;SDS011;4725;48.384;8.984;2023-05-14T06:40:10;10.07;;;8.60;;
9370;SDS011;4725;48.384;8.984;2023-05-14T06:42:39;8.73;;;7.93;;
9370;SDS011;4725;48.384;8.984;2023-05-14T06:45:06;8.30;;;7.50;;
9370;SDS011;4725;48.384;8.984;2023-05-14T06:47:35;8.47;;;7.57;;
9370;SDS011;4725;48.384;8.984;2023-05-14T06:50:02;8.73;;;7.87;;
9370;SDS011;4725;48.384;8.984;2023-05-14T06:52:29;8.55;;;7.75;;
9370;SDS011;4725;48.384;8.984;2023-05-14T06:54:56;8.50;;;7.70;;
9370;SDS011;4725;48.384;8.984;2023-05-14T06:57:23;8.10;;;7.37;;
9370;SDS011;4725;48.384;8.984;2023-05-14T06:59:50;7.73;;;7.03;;
9370;SDS011;4725;48.384;8.984;2023-05-14T07:02:17;7.87;;;7.17;;
9370;SDS011;4725;48.384;8.984;2023-05-14T07:04:46;8.23;;;7.37;;
9370;SDS011;4725;48.384;8.984;2023-05-14T07:07:13;7.10;;;6.40;;
9370;SDS011;4725;48.384;8.984;2023-05-14T07:09:44;7.60;;;6.90;;
9370;SDS011;4725;48.384;8.984;2023-05-14T07:12:11;8.57;;;6.50;;
9370;SDS011;4725;48.384;8.984;2023-05-14T07:14:38;7.47;;;6.77;;
9370;SDS011;4725;48.384;8.984;2023-05-14T07:17:05;6.77;;;6.17;;
9370;SDS011;4725;48.384;8.984;2023-05-14T07:19:31;6.63;;;6.03;;
9370;SDS011;4725;48.384;8.984;2023-05-14T07:22:00;6.97;;;6.30;;
9370;SDS011;4725;48.384;8.984;2023-05-14T07:24:26;7.07;;;6.37;;
9370;SDS011;4725;48.384;8.984;2023-05-14T07:26:53;6.77;;;6.00;;
9370;SDS011;4725;48.384;8.984;2023-05-14T07:29:21;7.43;;;6.73;;
9370;SDS011;4725;48.384;8.984;2023-05-14T07:31:49;7.47;;;6.77;;
9370;SDS011;4725;48.384;8.984;2023-05-14T07:34:16;6.00;;;5.40;;
9370;SDS011;4725;48.384;8.984;2023-05-14T07:36:43;5.57;;;4.67;;
9370;SDS011;4725;48.384;8.984;2023-05-14T07:39:11;6.00;;;4.40;;
9370;SDS011;4725;48.384;8.984;2023-05-14T07:41:38;5.13;;;4.73;;
9370;SDS011;4725;48.384;8.984;2023-05-14T07:44:05;5.07;;;4.57;;
9370;SDS011;4725;48.384;8.984;2023-05-14T07:46:32;5.63;;;5.13;;
9370;SDS011;4725;48.384;8.984;2023-05-14T07:48:59;6.20;;;5.60;;
9370;SDS011;4725;48.384;8.984;2023-05-14T07:51:25;7.43;;;6.83;;
9370;SDS011;4725;48.384;8.984;2023-05-14T07:53:53;8.70;;;7.90;;
9370;SDS011;4725;48.384;8.984;2023-05-14T07:56:22;8.83;;;7.93;;
9370;SDS011;4725;48.384;8.984;2023-05-14T07:58:48;9.33;;;8.43;;
9370;SDS011;4725;48.384;8.984;2023-05-14T08:01:16;11.00;;;9.90;;
9370;SDS011;4725;48.384;8.984;2023-05-14T08:03:43;12.70;;;9.43;;
9370;SDS011;4725;48.384;8.984;2023-05-14T08:06:10;10.70;;;9.70;;
9370;SDS011;4725;48.384;8.984;2023-05-14T08:08:37;10.30;;;9.30;;
9370;SDS011;4725;48.384;8.984;2023-05-14T08:11:04;10.63;;;9.50;;
9370;SDS011;4725;48.384;8.984;2023-05-14T08:13:32;10.03;;;8.93;;
9370;SDS011;4725;48.384;8.984;2023-05-14T08:15:59;9.20;;;8.40;;
9370;SDS011;4725;48.384;8.984;2023-05-14T08:18:26;9.27;;;8.37;;
9370;SDS011;4725;48.384;8.984;2023-05-14T08:20:53;9.47;;;8.57;;
9370;SDS011;4725;48.384;8.984;2023-05-14T08:23:20;9.83;;;8.93;;
9370;SDS011;4725;48.384;8.984;2023-05-14T08:25:46;9.30;;;8.40;;
9370;SDS011;4725;48.384;8.984;2023-05-14T08:28:13;11.20;;;10.13;;
9370;SDS011;4725;48.384;8.984;2023-05-14T08:30:42;10.07;;;9.07;;
9370;SDS011;4725;48.384;8.984;2023-05-14T08:33:09;10.43;;;9.43;;
9370;SDS011;4725;48.384;8.984;2023-05-14T08:35:35;10.53;;;9.40;;
9370;SDS011;4725;48.384;8.984;2023-05-14T08:38:02;10.63;;;9.63;;
9370;SDS011;4725;48.384;8.984;2023-05-14T08:40:29;10.17;;;9.17;;
9370;SDS011;4725;48.384;8.984;2023-05-14T08:42:56;10.50;;;9.40;;
9370;SDS011;4725;48.384;8.984;2023-05-14T08:45:27;10.02;;;8.82;;
9370;SDS011;4725;48.384;8.984;2023-05-14T08:47:59;10.23;;;8.50;;
9370;SDS011;4725;48.384;8.984;2023-05-14T08:50:29;11.25;;;9.65;;
9370;SDS011;4725;48.384;8.984;2023-05-14T08:52:56;8.83;;;8.03;;
9370;SDS011;4725;48.384;8.984;2023-05-14T08:55:24;10.80;;;9.48;;
9370;SDS011;4725;48.384;8.984;2023-05-14T08:57:53;10.32;;;9.40;;
9370;SDS011;4725;48.384;8.984;2023-05-14T09:00:20;10.43;;;9.10;;
9370;SDS011;4725;48.384;8.984;2023-05-14T09:02:47;10.32;;;9.23;;
9370;SDS011;4725;48.384;8.984;2023-05-14T09:05:16;9.57;;;8.77;;
9370;SDS011;4725;48.384;8.984;2023-05-14T09:07:44;9.43;;;8.52;;
9370;SDS011;4725;48.384;8.984;2023-05-14T09:10:12;8.73;;;7.80;;
9370;SDS011;4725;48.384;8.984;2023-05-14T09:12:40;9.95;;;7.65;;
9370;SDS011;4725;48.384;8.984;2023-05-14T09:15:07;7.70;;;7.00;;
9370;SDS011;4725;48.384;8.984;2023-05-14T09:17:34;8.35;;;7.53;;
9370;SDS011;4725;48.384;8.984;2023-05-14T09:20:01;8.18;;;7.47;;
9370;SDS011;4725;48.384;8.984;2023-05-14T09:22:31;8.50;;;7.72;;
9370;SDS011;4725;48.384;8.984;2023-05-14T09:25:03;9.00;;;8.10;;
9370;SDS011;4725;48.384;8.984;2023-05-14T09:27:33;8.20;;;7.40;;
9370;SDS011;4725;48.384;8.984;2023-05-14T09:30:04;7.93;;;7.22;;
9370;SDS011;4725;48.384;8.984;2023-05-14T09:32:36;8.77;;;6.50;;
9370;SDS011;4725;48.384;8.984;2023-05-14T09:35:10;8.30;;;7.50;;
9370;SDS011;4725;48.384;8.984;2023-05-14T09:37:42;8.27;;;6.95;;
9370;SDS011;4725;48.384;8.984;2023-05-14T09:40:10;6.90;;;6.30;;
9370;SDS011;4725;48.384;8.984;2023-05-14T09:42:38;6.90;;;6.30;;
9370;SDS011;4725;48.384;8.984;2023-05-14T09:45:06;7.05;;;6.45;;
9370;SDS011;4725;48.384;8.984;2023-05-14T09:47:33;6.95;;;6.35;;
9370;SDS011;4725;48.384;8.984;2023-05-14T09:50:00;7.30;;;6.65;;
9370;SDS011;4725;48.384;8.984;2023-05-14T09:52:27;8.00;;;7.22;;
9370;SDS011;4725;48.384;8.984;2023-05-14T09:54:56;6.97;;;6.00;;
9370;SDS011;4725;48.384;8.984;2023-05-14T09:57:23;7.07;;;6.40;;
9370;SDS011;4725;48.384;8.984;2023-05-14T09:59:50;6.75;;;6.18;;
9370;SDS011;4725;48.384;8.984;2023-05-14T10:02:21;6.82;;;6.13;;
9370;SDS011;4725;48.384;8.984;2023-05-14T10:04:49;6.63;;;5.47;;
9370;SDS011;4725;48.384;8.984;2023-05-14T10:07:18;7.60;;;5.80;;
9370;SDS011;4725;48.384;8.984;2023-05-14T10:09:49;6.13;;;5.63;;
9370;SDS011;4725;48.384;8.984;2023-05-14T10:12:24;6.30;;;5.70;;
9370;SDS011;4725;48.384;8.984;2023-05-14T10:14:55;6.60;;;6.10;;
9370;SDS011;4725;48.384;8.984;2023-05-14T10:17:27;6.22;;;5.60;;
9370;SDS011;4725;48.384;8.984;2023-05-14T10:19:57;6.22;;;5.63;;
9370;SDS011;4725;48.384;8.984;2023-05-14T10:22:30;5.97;;;5.47;;
9370;SDS011;4725;48.384;8.984;2023-05-14T10:24:59;6.13;;;5.63;;
9370;SDS011;4725;48.384;8.984;2023-05-14T10:27:28;7.03;;;5.88;;
9370;SDS011;4725;48.384;8.984;2023-05-14T10:29:56;5.70;;;5.20;;
9370;SDS011;4725;48.384;8.984;2023-05-14T10:32:23;6.35;;;5.75;;
9370;SDS011;4725;48.384;8.984;2023-05-14T10:34:51;6.68;;;6.07;;
9370;SDS011;4725;48.384;8.984;2023-05-14T10:37:19;6.10;;;5.60;;
9370;SDS011;4725;48.384;8.984;2023-05-14T10:39:48;6.10;;;5.50;;
9370;SDS011;4725;48.384;8.984;2023-05-14T10:42:17;5.90;;;5.28;;
9370;SDS011;4725;48.384;8.984;2023-05-14T10:44:48;6.20;;;5.70;;
9370;SDS011;4725;48.384;8.984;2023-05-14T10:47:17;5.63;;;5.13;;
9370;SDS011;4725;48.384;8.984;2023-05-14T10:49:45;6.57;;;5.97;;
9370;SDS011;4725;48.384;8.984;2023-05-14T10:52:14;5.68;;;5.18;;
9370;SDS011;4725;48.384;8.984;2023-05-14T10:54:49;5.68;;;5.18;;
9370;SDS011;4725;48.384;8.984;2023-05-14T10:57:17;5.50;;;5.00;;
9370;SDS011;4725;48.384;8.984;2023-05-14T10:59:45;5.80;;;5.20;;
9370;SDS011;4725;48.384;8.984;2023-05-14T11:02:21;6.10;;;5.55;;
9370;SDS011;4725;48.384;8.984;2023-05-14T11:04:53;6.90;;;5.63;;
9370;SDS011;4725;48.384;8.984;2023-05-14T11:07:23;6.55;;;5.95;;
9370;SDS011;4725;48.384;8.984;2023-05-14T11:09:52;5.85;;;5.35;;
9370;SDS011;4725;48.384;8.984;2023-05-14T11:12:25;6.07;;;5.57;;
9370;SDS011;4725;48.384;8.984;2023-05-14T11:14:53;6.90;;;5.75;;
9370;SDS011;4725;48.384;8.984;2023-05-14T11:17:22;5.85;;;5.20;;
9370;SDS011;4725;48.384;8.984;2023-05-14T11:19:50;5.60;;;5.10;;
9370;SDS011;4725;48.384;8.984;2023-05-14T11:22:17;7.07;;;5.60;;
9370;SDS011;4725;48.384;8.984;2023-05-14T11:24:43;6.07;;;5.57;;
9370;SDS011;4725;48.384;8.984;2023-05-14T11:27:10;5.95;;;5.45;;
9370;SDS011;4725;48.384;8.984;2023-05-14T11:29:37;6.55;;;5.90;;
9370;SDS011;4725;48.384;8.984;2023-05-14T11:32:09;6.03;;;5.53;;
9370;SDS011;4725;48.384;8.984;2023-05-14T11:34:36;6.15;;;5.55;;
9370;SDS011;4725;48.384;8.984;2023-05-14T11:37:03;5.93;;;5.43;;
9370;SDS011;4725;48.384;8.984;2023-05-14T11:39:31;5.28;;;4.80;;
9370;SDS011;4725;48.384;8.984;2023-05-14T11:41:58;5.80;;;5.30;;
9370;SDS011;4725;48.384;8.984;2023-05-14T11:44:27;3.92;;;3.63;;
9370;SDS011;4725;48.384;8.984;2023-05-14T11:46:54;5.57;;;4.65;;
9370;SDS011;4725;48.384;8.984;2023-05-14T11:49:23;4.72;;;4.32;;
9370;SDS011;4725;48.384;8.984;2023-05-14T11:51:55;4.32;;;4.03;;
9370;SDS011;4725;48.384;8.984;2023-05-14T11:54:24;4.35;;;4.03;;
9370;SDS011;4725;48.384;8.984;2023-05-14T11:56:52;3.92;;;3.50;;
9370;SDS011;4725;48.384;8.984;2023-05-14T11:59:20;4.05;;;3.75;;
9370;SDS011;4725;48.384;8.984;2023-05-14T12:01:49;4.25;;;3.95;;
9370;SDS011;4725;48.384;8.984;2023-05-14T12:04:16;3.42;;;3.13;;
9370;SDS011;4725;48.384;8.984;2023-05-14T12:06:47;3.38;;;3.08;;
9370;SDS011;4725;48.384;8.984;2023-05-14T12:09:15;3.42;;;3.17;;
9370;SDS011;4725;48.384;8.984;2023-05-14T12:11:42;5.85;;;5.13;;
9370;SDS011;4725;48.384;8.984;2023-05-14T12:14:09;3.40;;;3.10;;
9370;SDS011;4725;48.384;8.984;2023-05-14T12:16:38;3.47;;;3.17;;
9370;SDS011;4725;48.384;8.984;2023-05-14T12:19:07;3.25;;;3.05;;
9370;SDS011;4725;48.384;8.984;2023-05-14T12:21:36;3.45;;;3.22;;
9370;SDS011;4725;48.384;8.984;2023-05-14T12:24:07;5.07;;;3.05;;
9370;SDS011;4725;48.384;8.984;2023-05-14T12:26:35;3.38;;;3.08;;
9370;SDS011;4725;48.384;8.984;2023-05-14T12:29:02;2.97;;;2.78;;
9370;SDS011;4725;48.384;8.984;2023-05-14T12:31:31;3.30;;;3.00;;
9370;SDS011;4725;48.384;8.984;2023-05-14T12:33:58;3.55;;;3.25;;
9370;SDS011;4725;48.384;8.984;2023-05-14T12:36:25;4.03;;;3.60;;
9370;SDS011;4725;48.384;8.984;2023-05-14T12:38:56;3.72;;;3.17;;
9370;SDS011;4725;48.384;8.984;2023-05-14T12:41:25;5.50;;;4.03;;
9370;SDS011;4725;48.384;8.984;2023-05-14T12:43:52;3.92;;;3.50;;
9370;SDS011;4725;48.384;8.984;2023-05-14T12:46:19;3.95;;;3.45;;
9370;SDS011;4725;48.384;8.984;2023-05-14T12:48:46;3.00;;;2.70;;
9370;SDS011;4725;48.384;8.984;2023-05-14T12:51:13;3.17;;;2.75;;
9370;SDS011;4725;48.384;8.984;2023-05-14T12:53:40;6.35;;;3.13;;
9370;SDS011;4725;48.384;8.984;2023-05-14T12:56:07;2.92;;;2.72;;
9370;SDS011;4725;48.384;8.984;2023-05-14T12:58:36;3.10;;;2.90;;
9370;SDS011;4725;48.384;8.984;2023-05-14T13:01:03;3.17;;;2.90;;
9370;SDS011;4725;48.384;8.984;2023-05-14T13:03:30;3.42;;;3.13;;
9370;SDS011;4725;48.384;8.984;2023-05-14T13:05:57;4.00;;;3.55;;
9370;SDS011;4725;48.384;8.984;2023-05-14T13:08:25;3.70;;;3.40;;
9370;SDS011;4725;48.384;8.984;2023-05-14T13:10:52;4.00;;;3.55;;
9370;SDS011;4725;48.384;8.984;2023-05-14T13:13:19;3.08;;;2.85;;
9370;SDS011;4725;48.384;8.984;2023-05-14T13:15:48;6.00;;;3.50;;
9370;SDS011;4725;48.384;8.984;2023-05-14T13:18:17;2.63;;;2.42;;
9370;SDS011;4725;48.384;8.984;2023-05-14T13:20:44;3.58;;;3.10;;
9370;SDS011;4725;48.384;8.984;2023-05-14T13:23:11;3.03;;;2.80;;
9370;SDS011;4725;48.384;8.984;2023-05-14T13:25:38;3.08;;;2.70;;
9370;SDS011;4725;48.384;8.984;2023-05-14T13:28:05;2.80;;;2.50;;
9370;SDS011;4725;48.384;8.984;2023-05-14T13:30:31;5.38;;;2.25;;
9370;SDS011;4725;48.384;8.984;2023-05-14T13:33:00;2.47;;;2.28;;
9370;SDS011;4725;48.384;8.984;2023-05-14T13:35:26;3.05;;;2.60;;
9370;SDS011;4725;48.384;8.984;2023-05-14T13:37:53;2.70;;;2.50;;
9370;SDS011;4725;48.384;8.984;2023-05-14T13:40:20;4.53;;;3.03;;
9370;SDS011;4725;48.384;8.984;2023-05-14T13:42:47;3.30;;;3.10;;
9370;SDS011;4725;48.384;8.984;2023-05-14T13:45:14;4.25;;;2.67;;
9370;SDS011;4725;48.384;8.984;2023-05-14T13:47:41;3.40;;;3.20;;
9370;SDS011;4725;48.384;8.984;2023-05-14T13:50:09;3.13;;;2.92;;
9370;SDS011;4725;48.384;8.984;2023-05-14T13:52:36;7.25;;;3.20;;
9370;SDS011;4725;48.384;8.984;2023-05-14T13:55:04;3.78;;;3.47;;
9370;SDS011;4725;48.384;8.984;2023-05-14T13:57:31;7.93;;;4.22;;
9370;SDS011;4725;48.384;8.984;2023-05-14T13:59:58;7.68;;;4.95;;
9370;SDS011;4725;48.384;8.984;2023-05-14T14:02:25;6.75;;;5.00;;
9370;SDS011;4725;48.384;8.984;2023-05-14T14:04:52;6.43;;;5.45;;
9370;SDS011;4725;48.384;8.984;2023-05-14T14:07:20;7.30;;;5.55;;
9370;SDS011;4725;48.384;8.984;2023-05-14T14:09:47;6.30;;;5.68;;
9370;SDS011;4725;48.384;8.984;2023-05-14T14:12:14;7.90;;;5.15;;
9370;SDS011;4725;48.384;8.984;2023-05-14T14:14:41;10.27;;;6.18;;
9370;SDS011;4725;48.384;8.984;2023-05-14T14:17:08;6.55;;;5.85;;
9370;SDS011;4725;48.384;8.984;2023-05-14T14:19:34;8.73;;;5.65;;
9370;SDS011;4725;48.384;8.984;2023-05-14T14:22:01;9.13;;;7.10;;
9370;SDS011;4725;48.384;8.984;2023-05-14T14:24:30;7.32;;;6.63;;
9370;SDS011;4725;48.384;8.984;2023-05-14T14:26:57;8.88;;;6.28;;
9370;SDS011;4725;48.384;8.984;2023-05-14T14:29:25;8.52;;;6.28;;
9370;SDS011;4725;48.384;8.984;2023-05-14T14:31:52;6.15;;;5.55;;
9370;SDS011;4725;48.384;8.984;2023-05-14T14:34:19;5.97;;;5.37;;
9370;SDS011;4725;48.384;8.984;2023-05-14T14:36:46;6.50;;;5.43;;
9370;SDS011;4725;48.384;8.984;2023-05-14T14:39:13;4.50;;;4.10;;
9370;SDS011;4725;48.384;8.984;2023-05-14T14:41:41;5.40;;;4.90;;
9370;SDS011;4725;48.384;8.984;2023-05-14T14:44:08;5.25;;;4.75;;
9370;SDS011;4725;48.384;8.984;2023-05-14T14:46:35;5.75;;;4.53;;
9370;SDS011;4725;48.384;8.984;2023-05-14T14:49:02;7.05;;;4.45;;
9370;SDS011;4725;48.384;8.984;2023-05-14T14:51:29;5.05;;;4.45;;
9370;SDS011;4725;48.384;8.984;2023-05-14T14:53:57;9.15;;;4.88;;
9370;SDS011;4725;48.384;8.984;2023-05-14T14:56:25;5.32;;;4.82;;
9370;SDS011;4725;48.384;8.984;2023-05-14T14:58:53;7.85;;;6.53;;
9370;SDS011;4725;48.384;8.984;2023-05-14T15:01:20;8.25;;;6.28;;
9370;SDS011;4725;48.384;8.984;2023-05-14T15:03:47;13.32;;;7.25;;
9370;SDS011;4725;48.384;8.984;2023-05-14T15:06:14;6.43;;;5.82;;
9370;SDS011;4725;48.384;8.984;2023-05-14T15:08:40;7.35;;;6.13;;
9370;SDS011;4725;48.384;8.984;2023-05-14T15:11:07;9.23;;;6.15;;
9370;SDS011;4725;48.384;8.984;2023-05-14T15:13:34;7.03;;;5.67;;
9370;SDS011;4725;48.384;8.984;2023-05-14T15:16:02;5.47;;;4.97;;
9370;SDS011;4725;48.384;8.984;2023-05-14T15:18:29;5.45;;;4.60;;